Time,TemperatureF,DewpointF,PressureIn,WindDirection,WindDirectionDegrees,WindSpeedMPH,WindSpeedGustMPH,Humidity,HourlyPrecipIn,Conditions,Clouds,dailyrainin,SoftwareType,DateUTC
2013-02-08 00:22:00,15.0,-99.9,30.18,NE,56,16.0,20.0,-999,-99.99,,,-99.99,,2013-02-08 05:22:00,
2013-02-08 00:42:00,16.0,-99.9,30.18,ENE,57,16.0,20.0,-999,-99.99,,,-99.99,,2013-02-08 05:42:00,
2013-02-08 01:52:00,15.0,-99.9,30.18,NE,51,14.0,19.0,-999,-99.99,,,-99.99,,2013-02-08 06:52:00,
2013-02-08 02:12:00,15.0,-99.9,30.17,NE,55,15.0,21.0,-999,-99.99,,,-99.99,,2013-02-08 07:12:00,
2013-02-08 03:22:00,14.0,-99.9,30.17,NE,40,18.0,22.0,-999,-99.99,,,-99.99,,2013-02-08 08:22:00,
2013-02-08 03:42:00,14.0,-99.9,30.17,NE,46,18.0,21.0,-999,-99.99,,,-99.99,,2013-02-08 08:42:00,
2013-02-08 04:52:00,12.0,-99.9,30.17,NNE,26,17.0,21.0,-999,-99.99,,,-99.99,,2013-02-08 09:52:00,
2013-02-08 05:12:00,12.0,-99.9,30.17,NNE,21,21.0,23.0,-999,-99.99,,,-99.99,,2013-02-08 10:12:00,
2013-02-08 06:22:00,12.0,-99.9,30.18,NNE,18,20.0,22.0,-999,-99.99,,,-99.99,,2013-02-08 11:22:00,
2013-02-08 06:42:00,12.0,-99.9,30.18,NNE,15,20.0,22.0,-999,-99.99,,,-99.99,,2013-02-08 11:42:00,
2013-02-08 07:53:00,13.0,-99.9,30.21,North,5,15.0,19.0,-999,-99.99,,,-99.99,,2013-02-08 12:53:00,
2013-02-08 08:12:00,13.0,-99.9,30.21,North,6,13.0,17.0,-999,-99.99,,,-99.99,,2013-02-08 13:12:00,
2013-02-08 08:52:00,13.0,-99.9,30.22,NNE,24,18.0,20.0,-999,-99.99,,,-99.99,,2013-02-08 13:52:00,
2013-02-08 09:22:00,12.0,-99.9,30.24,NNE,15,15.0,18.0,-999,-99.99,,,-99.99,,2013-02-08 14:22:00,
2013-02-08 09:42:00,12.0,-99.9,30.24,NNE,16,17.0,19.0,-999,-99.99,,,-99.99,,2013-02-08 14:42:00,
2013-02-08 10:22:00,10.0,-99.9,30.25,NNE,21,18.0,19.0,-999,-99.99,,,-99.99,,2013-02-08 15:22:00,
2013-02-08 10:52:00,11.0,-99.9,30.26,NNE,21,18.0,20.0,-999,-99.99,,,-99.99,,2013-02-08 15:52:00,
2013-02-08 11:12:00,11.0,-99.9,30.26,NNE,23,19.0,20.0,-999,-99.99,,,-99.99,,2013-02-08 16:12:00,
2013-02-08 11:52:00,12.0,-99.9,30.27,NNE,13,16.0,17.0,-999,-99.99,,,-99.99,,2013-02-08 16:52:00,
2013-02-08 12:23:00,13.0,-99.9,30.28,NNE,23,15.0,18.0,-999,-99.99,,,-99.99,,2013-02-08 17:23:00,
2013-02-08 12:42:00,14.0,-99.9,30.29,NNE,20,16.0,17.0,-999,-99.99,,,-99.99,,2013-02-08 17:42:00,
2013-02-08 13:25:00,16.0,-99.9,30.27,NNE,17,13.0,15.0,-999,-99.99,,,-99.99,,2013-02-08 18:25:00,
2013-02-08 13:44:00,16.0,-99.9,30.27,NNE,19,12.0,14.0,-999,-99.99,,,-99.99,,2013-02-08 18:44:00,
2013-02-08 14:12:00,17.0,-99.9,30.27,NNE,25,13.0,16.0,-999,-99.99,,,-99.99,,2013-02-08 19:12:00,
2013-02-08 14:52:00,18.0,-99.9,30.27,NNE,25,14.0,17.0,-999,-99.99,,,-99.99,,2013-02-08 19:52:00,
2013-02-08 15:12:00,18.0,-99.9,30.27,NNW,340,8.0,13.0,-999,-99.99,,,-99.99,,2013-02-08 20:12:00,
2013-02-08 16:22:00,19.0,-99.9,30.29,North,7,6.0,11.0,-999,-99.99,,,-99.99,,2013-02-08 21:22:00,
2013-02-08 16:42:00,19.0,-99.9,30.29,NNW,347,7.0,9.0,-999,-99.99,,,-99.99,,2013-02-08 21:42:00,
2013-02-08 17:22:00,20.0,-99.9,30.30,NW,317,5.0,7.0,-999,-99.99,,,-99.99,,2013-02-08 22:22:00,
2013-02-08 17:42:00,19.0,-99.9,30.31,NW,317,5.0,9.0,-999,-99.99,,,-99.99,,2013-02-08 22:42:00,
2013-02-08 18:22:00,17.0,-99.9,30.32,NW,319,6.0,9.0,-999,-99.99,,,-99.99,,2013-02-08 23:22:00,
2013-02-08 18:42:00,16.0,-99.9,30.33,NNW,328,6.0,9.0,-999,-99.99,,,-99.99,,2013-02-08 23:42:00,
2013-02-08 19:22:00,14.0,-99.9,30.35,NNW,334,5.0,7.0,-999,-99.99,,,-99.99,,2013-02-09 00:22:00,
2013-02-08 19:42:00,13.0,-99.9,30.35,NNW,332,6.0,8.0,-999,-99.99,,,-99.99,,2013-02-09 00:42:00,
2013-02-08 20:52:00,11.0,-99.9,30.37,North,8,9.0,11.0,-999,-99.99,,,-99.99,,2013-02-09 01:52:00,
2013-02-08 21:11:00,12.0,-99.9,30.36,NNE,32,11.0,13.0,-999,-99.99,,,-99.99,,2013-02-09 02:11:00,
2013-02-08 22:22:00,9.0,-99.9,30.37,NE,34,10.0,12.0,-999,-99.99,,,-99.99,,2013-02-09 03:22:00,
2013-02-08 22:42:00,8.0,-99.9,30.37,NNE,12,8.0,12.0,-999,-99.99,,,-99.99,,2013-02-09 03:42:00,
2013-02-08 23:24:00,7.0,-99.9,30.40,North,5,10.0,12.0,-999,-99.99,,,-99.99,,2013-02-09 04:24:00,
2013-02-08 23:52:00,7.0,-99.9,30.38,North,10,9.0,11.0,-999,-99.99,,,-99.99,,2013-02-09 04:52:00,